sensor_id;sensor_type;location;lat;lon;timestamp;P1;durP1;ratioP1;P2;durP2;ratioP2
16025;SDS011;8117;52.488;13.460;2022-10-29T01:00:08;4.30;;;1.60;;
16025;SDS011;8117;52.488;13.460;2022-10-29T01:02:46;3.43;;;1.50;;
16025;SDS011;8117;52.488;13.460;2022-10-29T01:15:47;3.03;;;1.50;;
16025;SDS011;8117;52.488;13.460;2022-10-29T01:22:28;2.60;;;1.13;;
16025;SDS011;8117;52.488;13.460;2022-10-29T01:28:57;2.37;;;1.83;;
16025;SDS011;8117;52.488;13.460;2022-10-29T02:23:47;3.50;;;2.03;;
16025;SDS011;8117;52.488;13.460;2022-10-29T02:26:15;2.80;;;1.97;;
16025;SDS011;8117;52.488;13.460;2022-10-29T02:29:01;1.40;;;0.97;;
16025;SDS011;8117;52.488;13.460;2022-10-29T02:32:12;3.53;;;2.13;;
16025;SDS011;8117;52.488;13.460;2022-10-29T03:03:10;2.77;;;2.00;;
16025;SDS011;8117;52.488;13.460;2022-10-29T03:06:11;3.80;;;1.83;;
16025;SDS011;8117;52.488;13.460;2022-10-29T03:08:38;3.07;;;1.80;;
16025;SDS011;8117;52.488;13.460;2022-10-29T03:11:18;10.93;;;1.63;;
16025;SDS011;8117;52.488;13.460;2022-10-29T03:17:18;2.97;;;1.80;;
16025;SDS011;8117;52.488;13.460;2022-10-29T03:20:15;1.50;;;1.00;;
16025;SDS011;8117;52.488;13.460;2022-10-29T03:22:57;2.77;;;1.30;;
16025;SDS011;8117;52.488;13.460;2022-10-29T03:25:31;2.90;;;2.10;;
16025;SDS011;8117;52.488;13.460;2022-10-29T03:28:05;2.60;;;2.00;;
16025;SDS011;8117;52.488;13.460;2022-10-29T03:35:40;2.10;;;1.83;;
16025;SDS011;8117;52.488;13.460;2022-10-29T03:37:22;3.37;;;1.90;;
16025;SDS011;8117;52.488;13.460;2022-10-29T03:39:54;4.20;;;1.83;;
16025;SDS011;8117;52.488;13.460;2022-10-29T03:42:22;3.20;;;1.77;;
16025;SDS011;8117;52.488;13.460;2022-10-29T03:58:23;6.53;;;1.70;;
16025;SDS011;8117;52.488;13.460;2022-10-29T04:01:17;2.23;;;1.63;;
16025;SDS011;8117;52.488;13.460;2022-10-29T04:03:45;2.43;;;1.60;;
16025;SDS011;8117;52.488;13.460;2022-10-29T04:09:23;2.87;;;1.77;;
16025;SDS011;8117;52.488;13.460;2022-10-29T04:12:15;3.07;;;1.43;;
16025;SDS011;8117;52.488;13.460;2022-10-29T04:14:58;2.77;;;1.73;;
16025;SDS011;8117;52.488;13.460;2022-10-29T04:17:48;4.13;;;2.00;;
16025;SDS011;8117;52.488;13.460;2022-10-29T04:20:17;5.40;;;1.93;;
16025;SDS011;8117;52.488;13.460;2022-10-29T04:22:44;3.50;;;2.33;;
16025;SDS011;8117;52.488;13.460;2022-10-29T04:31:52;2.00;;;1.60;;
16025;SDS011;8117;52.488;13.460;2022-10-29T04:34:25;4.03;;;1.90;;
16025;SDS011;8117;52.488;13.460;2022-10-29T04:47:08;1.97;;;1.50;;
16025;SDS011;8117;52.488;13.460;2022-10-29T04:49:48;4.50;;;1.80;;
16025;SDS011;8117;52.488;13.460;2022-10-29T04:52:29;4.93;;;1.20;;
16025;SDS011;8117;52.488;13.460;2022-10-29T04:54:59;7.27;;;2.00;;
16025;SDS011;8117;52.488;13.460;2022-10-29T04:57:34;2.43;;;1.17;;
16025;SDS011;8117;52.488;13.460;2022-10-29T05:07:22;3.27;;;1.67;;
16025;SDS011;8117;52.488;13.460;2022-10-29T05:17:01;4.90;;;1.90;;
16025;SDS011;8117;52.488;13.460;2022-10-29T05:21:18;4.10;;;2.63;;
16025;SDS011;8117;52.488;13.460;2022-10-29T06:00:44;4.13;;;2.00;;
16025;SDS011;8117;52.488;13.460;2022-10-29T06:03:52;3.77;;;2.20;;
16025;SDS011;8117;52.488;13.460;2022-10-29T06:06:30;4.30;;;1.87;;
16025;SDS011;8117;52.488;13.460;2022-10-29T06:08:57;3.13;;;1.57;;
16025;SDS011;8117;52.488;13.460;2022-10-29T06:11:26;2.20;;;1.67;;
16025;SDS011;8117;52.488;13.460;2022-10-29T06:13:58;1.70;;;1.43;;
16025;SDS011;8117;52.488;13.460;2022-10-29T06:16:40;3.30;;;2.57;;
16025;SDS011;8117;52.488;13.460;2022-10-29T06:22:57;3.90;;;1.60;;
16025;SDS011;8117;52.488;13.460;2022-10-29T06:25:24;3.60;;;1.87;;
16025;SDS011;8117;52.488;13.460;2022-10-29T06:28:08;7.07;;;1.80;;
16025;SDS011;8117;52.488;13.460;2022-10-29T06:30:44;3.83;;;2.53;;
16025;SDS011;8117;52.488;13.460;2022-10-29T06:33:25;4.03;;;2.33;;
16025;SDS011;8117;52.488;13.460;2022-10-29T06:36:16;4.37;;;2.17;;
16025;SDS011;8117;52.488;13.460;2022-10-29T06:38:53;4.57;;;1.90;;
16025;SDS011;8117;52.488;13.460;2022-10-29T06:41:41;2.07;;;1.63;;
16025;SDS011;8117;52.488;13.460;2022-10-29T06:48:25;3.73;;;1.40;;
16025;SDS011;8117;52.488;13.460;2022-10-29T06:50:56;3.40;;;2.03;;
16025;SDS011;8117;52.488;13.460;2022-10-29T06:53:28;4.43;;;1.93;;
16025;SDS011;8117;52.488;13.460;2022-10-29T06:56:06;5.80;;;2.20;;
16025;SDS011;8117;52.488;13.460;2022-10-29T06:58:39;1.50;;;1.33;;
16025;SDS011;8117;52.488;13.460;2022-10-29T07:01:06;4.43;;;2.17;;
16025;SDS011;8117;52.488;13.460;2022-10-29T07:03:35;6.40;;;2.23;;
16025;SDS011;8117;52.488;13.460;2022-10-29T07:06:04;3.00;;;1.80;;
16025;SDS011;8117;52.488;13.460;2022-10-29T07:08:38;2.93;;;1.87;;
16025;SDS011;8117;52.488;13.460;2022-10-29T07:11:06;3.57;;;1.50;;
16025;SDS011;8117;52.488;13.460;2022-10-29T07:13:34;3.57;;;1.70;;
16025;SDS011;8117;52.488;13.460;2022-10-29T07:16:02;1.97;;;1.67;;
16025;SDS011;8117;52.488;13.460;2022-10-29T07:18:32;3.97;;;1.60;;
16025;SDS011;8117;52.488;13.460;2022-10-29T07:22:09;3.03;;;2.37;;
16025;SDS011;8117;52.488;13.460;2022-10-29T07:24:21;4.00;;;1.87;;
16025;SDS011;8117;52.488;13.460;2022-10-29T07:26:48;3.57;;;2.17;;
16025;SDS011;8117;52.488;13.460;2022-10-29T07:29:20;4.30;;;1.70;;
16025;SDS011;8117;52.488;13.460;2022-10-29T07:31:47;2.70;;;1.93;;
16025;SDS011;8117;52.488;13.460;2022-10-29T07:38:20;4.17;;;1.70;;
16025;SDS011;8117;52.488;13.460;2022-10-29T07:41:28;5.83;;;2.37;;
16025;SDS011;8117;52.488;13.460;2022-10-29T07:44:03;4.57;;;1.73;;
16025;SDS011;8117;52.488;13.460;2022-10-29T07:46:51;3.47;;;1.83;;
16025;SDS011;8117;52.488;13.460;2022-10-29T07:49:18;2.77;;;1.93;;
16025;SDS011;8117;52.488;13.460;2022-10-29T07:51:52;5.43;;;1.83;;
16025;SDS011;8117;52.488;13.460;2022-10-29T07:54:25;2.53;;;1.50;;
16025;SDS011;8117;52.488;13.460;2022-10-29T07:57:31;2.63;;;1.70;;
16025;SDS011;8117;52.488;13.460;2022-10-29T08:00:04;2.80;;;2.23;;
16025;SDS011;8117;52.488;13.460;2022-10-29T08:05:41;4.07;;;1.17;;
16025;SDS011;8117;52.488;13.460;2022-10-29T08:08:12;2.67;;;2.23;;
16025;SDS011;8117;52.488;13.460;2022-10-29T08:10:57;2.60;;;1.40;;
16025;SDS011;8117;52.488;13.460;2022-10-29T08:20:25;2.63;;;1.70;;
16025;SDS011;8117;52.488;13.460;2022-10-29T08:23:09;4.80;;;2.10;;
16025;SDS011;8117;52.488;13.460;2022-10-29T08:25:48;4.10;;;2.17;;
16025;SDS011;8117;52.488;13.460;2022-10-29T08:28:29;2.80;;;1.73;;
16025;SDS011;8117;52.488;13.460;2022-10-29T08:31:08;7.23;;;2.97;;
16025;SDS011;8117;52.488;13.460;2022-10-29T08:33:46;2.10;;;1.90;;
16025;SDS011;8117;52.488;13.460;2022-10-29T08:36:24;4.57;;;2.53;;
16025;SDS011;8117;52.488;13.460;2022-10-29T08:39:03;1.93;;;1.67;;
16025;SDS011;8117;52.488;13.460;2022-10-29T08:41:44;3.70;;;1.90;;
16025;SDS011;8117;52.488;13.460;2022-10-29T08:44:25;4.03;;;1.80;;
16025;SDS011;8117;52.488;13.460;2022-10-29T08:47:13;3.20;;;1.77;;
16025;SDS011;8117;52.488;13.460;2022-10-29T08:49:46;3.47;;;1.90;;
16025;SDS011;8117;52.488;13.460;2022-10-29T08:55:15;4.47;;;2.13;;
16025;SDS011;8117;52.488;13.460;2022-10-29T08:55:42;2.53;;;1.70;;
16025;SDS011;8117;52.488;13.460;2022-10-29T09:01:49;5.87;;;1.83;;
16025;SDS011;8117;52.488;13.460;2022-10-29T09:04:22;1.97;;;1.37;;
16025;SDS011;8117;52.488;13.460;2022-10-29T09:07:01;1.63;;;1.30;;
16025;SDS011;8117;52.488;13.460;2022-10-29T09:09:54;3.47;;;1.97;;
16025;SDS011;8117;52.488;13.460;2022-10-29T09:18:57;3.80;;;1.97;;
16025;SDS011;8117;52.488;13.460;2022-10-29T09:21:35;4.03;;;2.23;;
16025;SDS011;8117;52.488;13.460;2022-10-29T09:27:35;2.27;;;1.90;;
16025;SDS011;8117;52.488;13.460;2022-10-29T09:33:33;3.23;;;1.87;;
16025;SDS011;8117;52.488;13.460;2022-10-29T09:36:10;3.77;;;2.53;;
16025;SDS011;8117;52.488;13.460;2022-10-29T09:38:41;4.17;;;2.73;;
16025;SDS011;8117;52.488;13.460;2022-10-29T09:41:33;3.70;;;1.60;;
16025;SDS011;8117;52.488;13.460;2022-10-29T09:44:16;5.07;;;2.03;;
16025;SDS011;8117;52.488;13.460;2022-10-29T09:48:19;2.33;;;1.77;;
16025;SDS011;8117;52.488;13.460;2022-10-29T09:56:11;3.00;;;1.90;;
16025;SDS011;8117;52.488;13.460;2022-10-29T09:58:40;2.33;;;1.50;;
16025;SDS011;8117;52.488;13.460;2022-10-29T10:01:32;5.57;;;2.13;;
16025;SDS011;8117;52.488;13.460;2022-10-29T10:04:30;4.93;;;2.10;;
16025;SDS011;8117;52.488;13.460;2022-10-29T10:10:49;2.70;;;1.27;;
16025;SDS011;8117;52.488;13.460;2022-10-29T10:13:23;1.83;;;1.10;;
16025;SDS011;8117;52.488;13.460;2022-10-29T10:15:56;3.80;;;1.30;;
16025;SDS011;8117;52.488;13.460;2022-10-29T10:18:37;2.60;;;1.63;;
16025;SDS011;8117;52.488;13.460;2022-10-29T10:24:31;3.90;;;2.10;;
16025;SDS011;8117;52.488;13.460;2022-10-29T10:27:28;7.97;;;1.43;;
16025;SDS011;8117;52.488;13.460;2022-10-29T10:30:13;4.43;;;2.00;;
16025;SDS011;8117;52.488;13.460;2022-10-29T10:32:44;3.73;;;2.33;;
16025;SDS011;8117;52.488;13.460;2022-10-29T10:35:25;3.17;;;1.70;;
16025;SDS011;8117;52.488;13.460;2022-10-29T10:37:55;3.40;;;1.60;;
16025;SDS011;8117;52.488;13.460;2022-10-29T10:40:23;3.43;;;1.53;;
16025;SDS011;8117;52.488;13.460;2022-10-29T10:42:55;1.50;;;1.27;;
16025;SDS011;8117;52.488;13.460;2022-10-29T10:45:24;5.00;;;2.33;;
16025;SDS011;8117;52.488;13.460;2022-10-29T10:48:01;1.73;;;1.40;;
16025;SDS011;8117;52.488;13.460;2022-10-29T10:50:46;3.23;;;1.53;;
16025;SDS011;8117;52.488;13.460;2022-10-29T10:53:24;2.10;;;1.53;;
16025;SDS011;8117;52.488;13.460;2022-10-29T10:56:13;3.87;;;1.57;;
16025;SDS011;8117;52.488;13.460;2022-10-29T11:01:52;4.57;;;2.00;;
16025;SDS011;8117;52.488;13.460;2022-10-29T11:04:36;1.93;;;1.80;;
16025;SDS011;8117;52.488;13.460;2022-10-29T11:07:15;1.50;;;1.40;;
16025;SDS011;8117;52.488;13.460;2022-10-29T11:09:48;4.97;;;2.57;;
16025;SDS011;8117;52.488;13.460;2022-10-29T11:12:18;4.00;;;2.37;;
16025;SDS011;8117;52.488;13.460;2022-10-29T11:15:04;2.70;;;1.53;;
16025;SDS011;8117;52.488;13.460;2022-10-29T11:17:55;3.57;;;1.93;;
16025;SDS011;8117;52.488;13.460;2022-10-29T11:20:38;2.80;;;1.57;;
16025;SDS011;8117;52.488;13.460;2022-10-29T11:23:19;2.43;;;1.47;;
16025;SDS011;8117;52.488;13.460;2022-10-29T11:59:53;3.77;;;1.93;;
16025;SDS011;8117;52.488;13.460;2022-10-29T12:05:52;3.30;;;1.37;;
16025;SDS011;8117;52.488;13.460;2022-10-29T12:09:19;2.50;;;1.20;;
16025;SDS011;8117;52.488;13.460;2022-10-29T12:11:57;3.67;;;1.60;;
16025;SDS011;8117;52.488;13.460;2022-10-29T12:14:39;1.50;;;1.40;;
16025;SDS011;8117;52.488;13.460;2022-10-29T12:17:15;3.50;;;1.60;;
16025;SDS011;8117;52.488;13.460;2022-10-29T12:19:48;2.70;;;1.80;;
16025;SDS011;8117;52.488;13.460;2022-10-29T12:22:23;2.10;;;1.47;;
16025;SDS011;8117;52.488;13.460;2022-10-29T12:28:07;2.72;;;1.67;;
16025;SDS011;8117;52.488;13.460;2022-10-29T12:30:43;3.87;;;1.50;;
16025;SDS011;8117;52.488;13.460;2022-10-29T12:33:14;3.40;;;1.73;;
16025;SDS011;8117;52.488;13.460;2022-10-29T12:35:44;4.40;;;1.87;;
16025;SDS011;8117;52.488;13.460;2022-10-29T12:38:21;4.00;;;2.27;;
16025;SDS011;8117;52.488;13.460;2022-10-29T12:40:54;3.60;;;1.60;;
16025;SDS011;8117;52.488;13.460;2022-10-29T12:43:38;3.73;;;1.70;;
16025;SDS011;8117;52.488;13.460;2022-10-29T12:49:54;3.83;;;2.10;;
16025;SDS011;8117;52.488;13.460;2022-10-29T12:54:40;3.23;;;1.70;;
16025;SDS011;8117;52.488;13.460;2022-10-29T12:55:48;1.93;;;1.53;;
16025;SDS011;8117;52.488;13.460;2022-10-29T12:59:19;5.10;;;2.37;;
16025;SDS011;8117;52.488;13.460;2022-10-29T13:02:45;4.20;;;1.93;;
16025;SDS011;8117;52.488;13.460;2022-10-29T13:05:40;3.30;;;2.13;;
16025;SDS011;8117;52.488;13.460;2022-10-29T13:08:31;4.63;;;1.75;;
16025;SDS011;8117;52.488;13.460;2022-10-29T13:11:17;3.33;;;2.05;;
16025;SDS011;8117;52.488;13.460;2022-10-29T13:13:53;1.57;;;1.43;;
16025;SDS011;8117;52.488;13.460;2022-10-29T13:16:24;4.60;;;1.67;;
16025;SDS011;8117;52.488;13.460;2022-10-29T13:27:31;2.50;;;1.80;;
16025;SDS011;8117;52.488;13.460;2022-10-29T13:32:29;2.30;;;1.47;;
16025;SDS011;8117;52.488;13.460;2022-10-29T13:38:11;3.25;;;2.25;;
16025;SDS011;8117;52.488;13.460;2022-10-29T13:46:31;2.53;;;1.80;;
16025;SDS011;8117;52.488;13.460;2022-10-29T13:49:04;2.70;;;1.20;;
16025;SDS011;8117;52.488;13.460;2022-10-29T13:52:13;1.85;;;1.27;;
16025;SDS011;8117;52.488;13.460;2022-10-29T13:54:41;2.67;;;2.33;;
16025;SDS011;8117;52.488;13.460;2022-10-29T13:57:13;3.27;;;1.70;;
16025;SDS011;8117;52.488;13.460;2022-10-29T14:02:43;3.97;;;1.50;;
16025;SDS011;8117;52.488;13.460;2022-10-29T14:03:47;4.70;;;2.43;;
16025;SDS011;8117;52.488;13.460;2022-10-29T14:10:04;1.53;;;1.40;;
16025;SDS011;8117;52.488;13.460;2022-10-29T14:13:23;2.97;;;1.63;;
16025;SDS011;8117;52.488;13.460;2022-10-29T14:16:35;5.27;;;2.17;;
16025;SDS011;8117;52.488;13.460;2022-10-29T14:19:26;5.83;;;1.87;;
16025;SDS011;8117;52.488;13.460;2022-10-29T14:22:57;2.55;;;1.52;;
16025;SDS011;8117;52.488;13.460;2022-10-29T14:25:42;3.50;;;1.80;;
16025;SDS011;8117;52.488;13.460;2022-10-29T14:28:16;3.57;;;1.77;;
16025;SDS011;8117;52.488;13.460;2022-10-29T14:30:45;3.33;;;2.00;;
16025;SDS011;8117;52.488;13.460;2022-10-29T14:39:37;5.87;;;2.63;;
16025;SDS011;8117;52.488;13.460;2022-10-29T14:58:57;3.43;;;2.43;;
16025;SDS011;8117;52.488;13.460;2022-10-29T15:01:28;2.40;;;2.10;;
16025;SDS011;8117;52.488;13.460;2022-10-29T15:04:33;3.27;;;2.07;;
16025;SDS011;8117;52.488;13.460;2022-10-29T15:07:31;2.90;;;1.90;;
16025;SDS011;8117;52.488;13.460;2022-10-29T15:51:26;4.67;;;2.40;;
16025;SDS011;8117;52.488;13.460;2022-10-29T15:54:02;4.17;;;2.53;;
16025;SDS011;8117;52.488;13.460;2022-10-29T15:56:41;3.93;;;2.70;;
16025;SDS011;8117;52.488;13.460;2022-10-29T15:59:27;3.77;;;2.27;;
16025;SDS011;8117;52.488;13.460;2022-10-29T16:09:14;5.00;;;2.72;;
16025;SDS011;8117;52.488;13.460;2022-10-29T16:11:42;3.80;;;2.40;;
16025;SDS011;8117;52.488;13.460;2022-10-29T16:19:50;5.70;;;2.10;;
16025;SDS011;8117;52.488;13.460;2022-10-29T16:21:05;4.10;;;2.60;;
16025;SDS011;8117;52.488;13.460;2022-10-29T16:23:56;5.20;;;2.30;;
16025;SDS011;8117;52.488;13.460;2022-10-29T16:30:28;4.60;;;2.30;;
16025;SDS011;8117;52.488;13.460;2022-10-29T22:08:17;7.43;;;5.13;;
16025;SDS011;8117;52.488;13.460;2022-10-29T22:11:10;7.10;;;5.10;;
16025;SDS011;8117;52.488;13.460;2022-10-29T22:14:40;8.57;;;5.00;;
16025;SDS011;8117;52.488;13.460;2022-10-29T22:17:11;7.97;;;5.10;;
16025;SDS011;8117;52.488;13.460;2022-10-29T22:19:41;10.27;;;6.40;;
16025;SDS011;8117;52.488;13.460;2022-10-29T22:41:19;9.87;;;5.47;;
16025;SDS011;8117;52.488;13.460;2022-10-29T22:42:36;8.83;;;5.03;;
16025;SDS011;8117;52.488;13.460;2022-10-29T22:55:03;6.07;;;4.63;;
16025;SDS011;8117;52.488;13.460;2022-10-29T22:57:44;8.83;;;5.43;;
16025;SDS011;8117;52.488;13.460;2022-10-29T23:00:23;7.00;;;4.37;;
16025;SDS011;8117;52.488;13.460;2022-10-29T23:03:07;10.60;;;4.50;;
16025;SDS011;8117;52.488;13.460;2022-10-29T23:05:40;8.97;;;4.50;;
